sensor_id;sensor_type;location;lat;lon;timestamp;pressure;altitude;pressure_sealevel;temperature;humidity
13241;BME280;6687;47.790;7.322;2024-02-04T06:19:30;100369.34;;;7.50;92.18
13241;BME280;6687;47.790;7.322;2024-02-04T06:21:56;100369.00;;;7.63;92.08
13241;BME280;6687;47.790;7.322;2024-02-04T06:24:23;100371.56;;;7.87;90.75
13241;BME280;6687;47.790;7.322;2024-02-04T06:26:50;100371.69;;;7.66;90.87
13241;BME280;6687;47.790;7.322;2024-02-04T06:29:16;100373.88;;;7.80;90.38
13241;BME280;6687;47.790;7.322;2024-02-04T06:31:44;100370.97;;;7.94;89.42
13241;BME280;6687;47.790;7.322;2024-02-04T06:34:11;100372.50;;;7.65;90.75
13241;BME280;6687;47.790;7.322;2024-02-04T06:36:42;100369.94;;;7.89;88.99
13241;BME280;6687;47.790;7.322;2024-02-04T06:39:09;100385.81;;;8.00;88.79
13241;BME280;6687;47.790;7.322;2024-02-04T06:41:36;100382.69;;;7.85;88.73
13241;BME280;6687;47.790;7.322;2024-02-04T06:44:03;100391.19;;;7.82;87.88
13241;BME280;6687;47.790;7.322;2024-02-04T06:46:30;100405.78;;;7.82;88.37
13241;BME280;6687;47.790;7.322;2024-02-04T06:48:57;100398.38;;;7.91;87.87
13241;BME280;6687;47.790;7.322;2024-02-04T06:51:23;100401.50;;;7.82;88.76
13241;BME280;6687;47.790;7.322;2024-02-04T06:53:51;100409.13;;;8.03;87.29
13241;BME280;6687;47.790;7.322;2024-02-04T06:56:18;100409.06;;;8.02;87.88
13241;BME280;6687;47.790;7.322;2024-02-04T06:58:45;100412.63;;;8.05;87.25
13241;BME280;6687;47.790;7.322;2024-02-04T07:01:12;100413.84;;;7.91;88.52
13241;BME280;6687;47.790;7.322;2024-02-04T07:03:39;100413.78;;;7.65;89.00
13241;BME280;6687;47.790;7.322;2024-02-04T07:06:06;100424.63;;;8.03;87.04
13241;BME280;6687;47.790;7.322;2024-02-04T07:08:33;100413.50;;;7.82;88.17
13241;BME280;6687;47.790;7.322;2024-02-04T07:11:01;100413.69;;;8.10;87.37
13241;BME280;6687;47.790;7.322;2024-02-04T07:13:28;100406.13;;;7.91;87.81
13241;BME280;6687;47.790;7.322;2024-02-04T07:15:55;100413.19;;;7.72;88.31
13241;BME280;6687;47.790;7.322;2024-02-04T07:18:22;100420.78;;;7.92;87.44
13241;BME280;6687;47.790;7.322;2024-02-04T07:20:48;100421.59;;;7.91;87.82
13241;BME280;6687;47.790;7.322;2024-02-04T07:23:15;100411.63;;;8.00;87.32
13241;BME280;6687;47.790;7.322;2024-02-04T07:25:42;100403.91;;;8.02;86.25
13241;BME280;6687;47.790;7.322;2024-02-04T07:28:10;100395.50;;;8.07;86.62
13241;BME280;6687;47.790;7.322;2024-02-04T07:30:37;100388.28;;;8.23;85.61
13241;BME280;6687;47.790;7.322;2024-02-04T07:33:04;100406.31;;;8.21;84.89
13241;BME280;6687;47.790;7.322;2024-02-04T07:35:31;100404.63;;;8.22;85.20
13241;BME280;6687;47.790;7.322;2024-02-04T07:37:58;100399.94;;;8.11;85.69
13241;BME280;6687;47.790;7.322;2024-02-04T07:40:24;100395.63;;;8.10;86.05
13241;BME280;6687;47.790;7.322;2024-02-04T07:42:52;100405.53;;;7.98;85.96
13241;BME280;6687;47.790;7.322;2024-02-04T07:45:20;100401.41;;;8.29;85.04
13241;BME280;6687;47.790;7.322;2024-02-04T07:47:47;100406.31;;;8.21;84.75
13241;BME280;6687;47.790;7.322;2024-02-04T07:50:13;100400.78;;;8.10;85.19
13241;BME280;6687;47.790;7.322;2024-02-04T07:52:40;100403.28;;;8.33;85.17
13241;BME280;6687;47.790;7.322;2024-02-04T07:55:07;100391.94;;;8.28;84.89
13241;BME280;6687;47.790;7.322;2024-02-04T07:57:34;100384.19;;;8.28;85.24
13241;BME280;6687;47.790;7.322;2024-02-04T08:00:01;100389.13;;;8.46;84.27
13241;BME280;6687;47.790;7.322;2024-02-04T08:02:31;100376.94;;;8.42;84.40
13241;BME280;6687;47.790;7.322;2024-02-04T08:04:58;100373.84;;;8.28;84.72
13241;BME280;6687;47.790;7.322;2024-02-04T08:07:25;100367.56;;;8.45;84.19
13241;BME280;6687;47.790;7.322;2024-02-04T08:09:51;100368.13;;;8.62;83.10
13241;BME280;6687;47.790;7.322;2024-02-04T08:12:18;100373.22;;;8.61;83.37
13241;BME280;6687;47.790;7.322;2024-02-04T08:14:45;100366.72;;;8.72;82.66
13241;BME280;6687;47.790;7.322;2024-02-04T08:17:11;100374.22;;;8.64;83.08
13241;BME280;6687;47.790;7.322;2024-02-04T08:19:40;100378.53;;;8.64;83.29
13241;BME280;6687;47.790;7.322;2024-02-04T08:22:06;100378.13;;;8.79;82.62
13241;BME280;6687;47.790;7.322;2024-02-04T08:24:34;100381.09;;;8.38;83.67
13241;BME280;6687;47.790;7.322;2024-02-04T08:27:01;100387.47;;;8.75;83.12
13241;BME280;6687;47.790;7.322;2024-02-04T08:29:29;100373.81;;;8.79;82.55
13241;BME280;6687;47.790;7.322;2024-02-04T08:31:55;100382.56;;;8.83;82.81
13241;BME280;6687;47.790;7.322;2024-02-04T08:34:22;100379.91;;;8.81;82.93
13241;BME280;6687;47.790;7.322;2024-02-04T08:36:50;100367.00;;;8.81;82.93
13241;BME280;6687;47.790;7.322;2024-02-04T08:39:17;100366.25;;;8.85;82.72
13241;BME280;6687;47.790;7.322;2024-02-04T08:41:44;100377.69;;;8.92;82.35
13241;BME280;6687;47.790;7.322;2024-02-04T08:44:10;100375.44;;;9.03;82.41
13241;BME280;6687;47.790;7.322;2024-02-04T08:46:37;100381.50;;;9.03;81.81
13241;BME280;6687;47.790;7.322;2024-02-04T08:49:04;100384.84;;;9.01;82.28
13241;BME280;6687;47.790;7.322;2024-02-04T08:51:31;100385.34;;;8.89;82.69
13241;BME280;6687;47.790;7.322;2024-02-04T08:53:59;100386.88;;;9.11;82.25
13241;BME280;6687;47.790;7.322;2024-02-04T08:56:25;100374.94;;;9.14;82.03
13241;BME280;6687;47.790;7.322;2024-02-04T08:58:52;100378.38;;;9.15;81.55
13241;BME280;6687;47.790;7.322;2024-02-04T09:01:19;100368.25;;;9.21;81.99
13241;BME280;6687;47.790;7.322;2024-02-04T09:03:46;100368.16;;;9.18;82.45
13241;BME280;6687;47.790;7.322;2024-02-04T09:06:13;100364.13;;;9.28;81.75
13241;BME280;6687;47.790;7.322;2024-02-04T09:08:40;100368.38;;;9.26;82.21
13241;BME280;6687;47.790;7.322;2024-02-04T09:11:08;100363.63;;;9.40;81.28
13241;BME280;6687;47.790;7.322;2024-02-04T09:13:34;100365.09;;;9.31;81.59
13241;BME280;6687;47.790;7.322;2024-02-04T09:16:01;100354.75;;;9.31;81.14
13241;BME280;6687;47.790;7.322;2024-02-04T09:18:29;100362.91;;;9.45;81.38
13241;BME280;6687;47.790;7.322;2024-02-04T09:20:56;100357.56;;;9.39;81.98
13241;BME280;6687;47.790;7.322;2024-02-04T09:23:22;100355.28;;;9.50;81.59
13241;BME280;6687;47.790;7.322;2024-02-04T09:25:49;100357.97;;;9.53;81.27
13241;BME280;6687;47.790;7.322;2024-02-04T09:28:17;100345.38;;;9.65;81.08
13241;BME280;6687;47.790;7.322;2024-02-04T09:30:44;100346.44;;;9.42;81.87
13241;BME280;6687;47.790;7.322;2024-02-04T09:33:11;100346.25;;;9.66;81.21
13241;BME280;6687;47.790;7.322;2024-02-04T09:35:38;100333.56;;;9.75;80.93
13241;BME280;6687;47.790;7.322;2024-02-04T09:38:05;100341.94;;;9.66;81.82
13241;BME280;6687;47.790;7.322;2024-02-04T09:40:31;100336.94;;;9.72;81.54
13241;BME280;6687;47.790;7.322;2024-02-04T09:42:59;100327.47;;;9.73;81.60
13241;BME280;6687;47.790;7.322;2024-02-04T09:45:28;100324.19;;;9.80;82.04
13241;BME280;6687;47.790;7.322;2024-02-04T09:47:56;100318.97;;;9.79;81.53
13241;BME280;6687;47.790;7.322;2024-02-04T09:50:23;100319.19;;;9.86;81.75
13241;BME280;6687;47.790;7.322;2024-02-04T09:52:50;100318.56;;;9.95;81.57
13241;BME280;6687;47.790;7.322;2024-02-04T09:55:19;100303.09;;;9.98;81.39
13241;BME280;6687;47.790;7.322;2024-02-04T09:57:47;100319.63;;;10.03;81.88
13241;BME280;6687;47.790;7.322;2024-02-04T10:00:14;100321.81;;;9.88;82.56
13241;BME280;6687;47.790;7.322;2024-02-04T10:02:45;100326.84;;;10.15;81.70
13241;BME280;6687;47.790;7.322;2024-02-04T10:05:13;100332.66;;;9.74;82.68
13241;BME280;6687;47.790;7.322;2024-02-04T10:07:39;100343.88;;;9.73;83.48
13241;BME280;6687;47.790;7.322;2024-02-04T10:10:07;100329.25;;;9.75;82.57
13241;BME280;6687;47.790;7.322;2024-02-04T10:12:34;100328.75;;;9.89;82.56
13241;BME280;6687;47.790;7.322;2024-02-04T10:15:04;100314.63;;;10.09;81.76
13241;BME280;6687;47.790;7.322;2024-02-04T10:17:31;100318.22;;;10.16;82.00
13241;BME280;6687;47.790;7.322;2024-02-04T10:20:00;100311.56;;;10.26;81.68
13241;BME280;6687;47.790;7.322;2024-02-04T10:22:27;100312.94;;;10.45;81.10
13241;BME280;6687;47.790;7.322;2024-02-04T10:25:05;100308.25;;;10.30;80.95
13241;BME280;6687;47.790;7.322;2024-02-04T10:27:32;100315.06;;;10.28;81.53
13241;BME280;6687;47.790;7.322;2024-02-04T10:29:59;100316.16;;;10.34;81.18
13241;BME280;6687;47.790;7.322;2024-02-04T10:32:26;100314.63;;;10.44;81.17
13241;BME280;6687;47.790;7.322;2024-02-04T10:34:53;100311.28;;;10.48;80.93
13241;BME280;6687;47.790;7.322;2024-02-04T10:37:21;100307.63;;;10.40;81.80
13241;BME280;6687;47.790;7.322;2024-02-04T10:39:48;100323.88;;;10.33;81.59
13241;BME280;6687;47.790;7.322;2024-02-04T10:42:15;100309.44;;;10.44;82.14
13241;BME280;6687;47.790;7.322;2024-02-04T10:44:44;100309.53;;;10.47;81.12
13241;BME280;6687;47.790;7.322;2024-02-04T10:47:17;100299.31;;;10.53;81.79
13241;BME280;6687;47.790;7.322;2024-02-04T10:49:50;100302.53;;;10.43;82.15
13241;BME280;6687;47.790;7.322;2024-02-04T10:52:18;100295.44;;;10.36;82.83
13241;BME280;6687;47.790;7.322;2024-02-04T10:54:46;100296.50;;;10.44;81.76
13241;BME280;6687;47.790;7.322;2024-02-04T10:57:20;100301.34;;;10.30;81.89
13241;BME280;6687;47.790;7.322;2024-02-04T10:59:47;100305.75;;;10.33;82.42
13241;BME280;6687;47.790;7.322;2024-02-04T11:02:15;100300.00;;;10.11;82.72
13241;BME280;6687;47.790;7.322;2024-02-04T11:04:42;100299.09;;;10.44;82.58
13241;BME280;6687;47.790;7.322;2024-02-04T11:07:10;100284.69;;;10.21;81.90
13241;BME280;6687;47.790;7.322;2024-02-04T11:09:37;100298.06;;;10.04;82.82
13241;BME280;6687;47.790;7.322;2024-02-04T11:12:09;100294.34;;;9.93;82.46
13241;BME280;6687;47.790;7.322;2024-02-04T11:14:39;100289.78;;;10.18;81.17
13241;BME280;6687;47.790;7.322;2024-02-04T11:17:21;100278.16;;;10.35;81.72
13241;BME280;6687;47.790;7.322;2024-02-04T11:20:03;100272.97;;;10.35;81.73
13241;BME280;6687;47.790;7.322;2024-02-04T11:22:53;100277.59;;;10.47;81.89
13241;BME280;6687;47.790;7.322;2024-02-04T11:25:43;100267.72;;;10.32;81.91
13241;BME280;6687;47.790;7.322;2024-02-04T11:28:12;100272.25;;;10.41;82.20
13241;BME280;6687;47.790;7.322;2024-02-04T11:30:39;100275.22;;;10.58;81.34
13241;BME280;6687;47.790;7.322;2024-02-04T11:33:06;100278.16;;;10.35;81.08
13241;BME280;6687;47.790;7.322;2024-02-04T11:35:33;100269.38;;;10.66;81.04
13241;BME280;6687;47.790;7.322;2024-02-04T11:38:00;100275.84;;;10.85;81.95
13241;BME280;6687;47.790;7.322;2024-02-04T11:40:33;100282.63;;;10.79;79.69
13241;BME280;6687;47.790;7.322;2024-02-04T11:43:04;100287.50;;;11.04;80.45
13241;BME280;6687;47.790;7.322;2024-02-04T11:45:36;100275.94;;;10.88;78.94
13241;BME280;6687;47.790;7.322;2024-02-04T11:48:06;100272.69;;;10.99;81.02
13241;BME280;6687;47.790;7.322;2024-02-04T11:50:33;100276.25;;;11.04;80.47
13241;BME280;6687;47.790;7.322;2024-02-04T11:53:08;100277.88;;;10.99;80.54
13241;BME280;6687;47.790;7.322;2024-02-04T11:55:36;100273.81;;;11.11;80.76
13241;BME280;6687;47.790;7.322;2024-02-04T11:58:04;100272.09;;;11.12;80.55
13241;BME280;6687;47.790;7.322;2024-02-04T12:00:33;100278.56;;;10.91;80.44
13241;BME280;6687;47.790;7.322;2024-02-04T12:03:01;100275.31;;;11.00;80.02
13241;BME280;6687;47.790;7.322;2024-02-04T12:05:30;100264.59;;;11.26;80.30
13241;BME280;6687;47.790;7.322;2024-02-04T12:07:57;100269.97;;;11.35;80.55
13241;BME280;6687;47.790;7.322;2024-02-04T12:10:25;100266.25;;;11.22;80.22
13241;BME280;6687;47.790;7.322;2024-02-04T12:12:53;100260.56;;;11.42;81.47
13241;BME280;6687;47.790;7.322;2024-02-04T12:15:20;100262.59;;;11.14;79.52
13241;BME280;6687;47.790;7.322;2024-02-04T12:17:48;100264.50;;;11.21;80.35
13241;BME280;6687;47.790;7.322;2024-02-04T12:20:15;100257.75;;;11.29;80.67
13241;BME280;6687;47.790;7.322;2024-02-04T12:22:42;100257.97;;;11.42;81.17
13241;BME280;6687;47.790;7.322;2024-02-04T12:25:09;100254.28;;;11.29;80.93
13241;BME280;6687;47.790;7.322;2024-02-04T12:27:37;100259.09;;;11.54;80.23
13241;BME280;6687;47.790;7.322;2024-02-04T12:30:04;100254.75;;;11.53;80.41
13241;BME280;6687;47.790;7.322;2024-02-04T12:32:32;100257.06;;;11.40;80.76
13241;BME280;6687;47.790;7.322;2024-02-04T12:35:00;100245.00;;;11.42;80.08
13241;BME280;6687;47.790;7.322;2024-02-04T12:37:27;100241.28;;;11.74;81.03
13241;BME280;6687;47.790;7.322;2024-02-04T12:39:55;100244.69;;;11.70;80.75
13241;BME280;6687;47.790;7.322;2024-02-04T12:42:23;100242.59;;;11.51;79.88
13241;BME280;6687;47.790;7.322;2024-02-04T12:44:51;100237.50;;;11.57;79.47
13241;BME280;6687;47.790;7.322;2024-02-04T12:47:19;100235.81;;;11.59;79.06
13241;BME280;6687;47.790;7.322;2024-02-04T12:49:46;100243.00;;;11.72;79.89
13241;BME280;6687;47.790;7.322;2024-02-04T12:52:14;100242.00;;;11.66;79.70
13241;BME280;6687;47.790;7.322;2024-02-04T12:54:41;100227.50;;;11.79;78.95
13241;BME280;6687;47.790;7.322;2024-02-04T12:57:09;100235.19;;;11.72;78.05
13241;BME280;6687;47.790;7.322;2024-02-04T12:59:37;100228.47;;;11.85;77.85
13241;BME280;6687;47.790;7.322;2024-02-04T13:02:05;100244.91;;;11.83;79.65
13241;BME280;6687;47.790;7.322;2024-02-04T13:04:36;100221.78;;;11.97;79.54
13241;BME280;6687;47.790;7.322;2024-02-04T13:07:06;100228.75;;;11.99;77.57
13241;BME280;6687;47.790;7.322;2024-02-04T13:09:36;100221.28;;;12.18;78.11
13241;BME280;6687;47.790;7.322;2024-02-04T13:12:03;100214.13;;;12.04;79.07
13241;BME280;6687;47.790;7.322;2024-02-04T13:14:30;100209.75;;;12.03;76.55
13241;BME280;6687;47.790;7.322;2024-02-04T13:16:57;100217.38;;;11.91;76.00
13241;BME280;6687;47.790;7.322;2024-02-04T13:19:24;100220.63;;;11.81;77.74
13241;BME280;6687;47.790;7.322;2024-02-04T13:21:50;100219.69;;;12.29;78.71
13241;BME280;6687;47.790;7.322;2024-02-04T13:24:17;100227.34;;;11.69;75.44
13241;BME280;6687;47.790;7.322;2024-02-04T13:26:45;100219.78;;;11.82;73.09
13241;BME280;6687;47.790;7.322;2024-02-04T13:29:12;100219.22;;;11.98;78.19
13241;BME280;6687;47.790;7.322;2024-02-04T13:31:38;100216.16;;;12.24;79.20
13241;BME280;6687;47.790;7.322;2024-02-04T13:34:05;100212.88;;;12.37;78.22
13241;BME280;6687;47.790;7.322;2024-02-04T13:36:32;100205.72;;;12.21;77.47
13241;BME280;6687;47.790;7.322;2024-02-04T13:38:59;100200.50;;;12.18;79.52
13241;BME280;6687;47.790;7.322;2024-02-04T13:41:25;100198.53;;;12.04;78.69
13241;BME280;6687;47.790;7.322;2024-02-04T13:43:53;100208.97;;;12.07;76.71
13241;BME280;6687;47.790;7.322;2024-02-04T13:46:20;100204.66;;;12.08;75.90
13241;BME280;6687;47.790;7.322;2024-02-04T13:48:47;100195.31;;;12.21;78.18
13241;BME280;6687;47.790;7.322;2024-02-04T13:51:14;100201.72;;;11.88;76.65
13241;BME280;6687;47.790;7.322;2024-02-04T13:53:40;100190.63;;;11.97;76.25
13241;BME280;6687;47.790;7.322;2024-02-04T13:56:07;100178.53;;;11.99;78.31
13241;BME280;6687;47.790;7.322;2024-02-04T13:58:34;100177.16;;;12.22;78.60
13241;BME280;6687;47.790;7.322;2024-02-04T14:01:02;100176.41;;;12.31;78.38
13241;BME280;6687;47.790;7.322;2024-02-04T14:03:29;100171.78;;;12.11;77.25
13241;BME280;6687;47.790;7.322;2024-02-04T14:05:56;100173.88;;;12.34;77.75
13241;BME280;6687;47.790;7.322;2024-02-04T14:08:22;100177.63;;;11.97;75.88
13241;BME280;6687;47.790;7.322;2024-02-04T14:10:49;100175.50;;;12.26;77.69
13241;BME280;6687;47.790;7.322;2024-02-04T14:13:16;100169.97;;;12.04;77.36
13241;BME280;6687;47.790;7.322;2024-02-04T14:15:42;100174.63;;;12.27;77.11
13241;BME280;6687;47.790;7.322;2024-02-04T14:18:10;100165.75;;;12.12;77.03
13241;BME280;6687;47.790;7.322;2024-02-04T14:20:37;100174.59;;;12.24;75.59
13241;BME280;6687;47.790;7.322;2024-02-04T14:23:04;100175.47;;;12.24;75.38
13241;BME280;6687;47.790;7.322;2024-02-04T14:25:30;100174.84;;;12.42;76.65
13241;BME280;6687;47.790;7.322;2024-02-04T14:27:57;100174.78;;;12.38;75.55
13241;BME280;6687;47.790;7.322;2024-02-04T14:30:24;100189.41;;;12.31;77.16
13241;BME280;6687;47.790;7.322;2024-02-04T14:32:51;100193.69;;;12.27;76.99
13241;BME280;6687;47.790;7.322;2024-02-04T14:35:19;100199.78;;;12.29;75.44
13241;BME280;6687;47.790;7.322;2024-02-04T14:37:46;100202.53;;;12.40;76.29
13241;BME280;6687;47.790;7.322;2024-02-04T14:40:14;100195.16;;;12.08;74.62
13241;BME280;6687;47.790;7.322;2024-02-04T14:42:40;100197.97;;;12.24;76.78
13241;BME280;6687;47.790;7.322;2024-02-04T14:45:08;100205.97;;;12.36;76.40
13241;BME280;6687;47.790;7.322;2024-02-04T14:47:36;100186.72;;;12.25;76.59
13241;BME280;6687;47.790;7.322;2024-02-04T14:50:03;100188.50;;;12.29;76.26
13241;BME280;6687;47.790;7.322;2024-02-04T14:52:31;100198.53;;;12.04;74.73
13241;BME280;6687;47.790;7.322;2024-02-04T14:54:59;100201.69;;;12.40;76.01
13241;BME280;6687;47.790;7.322;2024-02-04T14:57:25;100197.19;;;12.28;75.90
13241;BME280;6687;47.790;7.322;2024-02-04T14:59:52;100183.22;;;12.23;76.06
13241;BME280;6687;47.790;7.322;2024-02-04T15:02:19;100185.56;;;12.04;75.52
13241;BME280;6687;47.790;7.322;2024-02-04T15:04:46;100180.47;;;11.60;73.96
13241;BME280;6687;47.790;7.322;2024-02-04T15:07:13;100175.78;;;11.89;76.60
13241;BME280;6687;47.790;7.322;2024-02-04T15:09:41;100186.69;;;12.22;76.13
13241;BME280;6687;47.790;7.322;2024-02-04T15:12:09;100175.78;;;11.89;74.44
13241;BME280;6687;47.790;7.322;2024-02-04T15:14:36;100181.81;;;11.88;76.88
13241;BME280;6687;47.790;7.322;2024-02-04T15:17:04;100191.50;;;11.97;74.29
13241;BME280;6687;47.790;7.322;2024-02-04T15:19:31;100199.78;;;11.78;76.21
13241;BME280;6687;47.790;7.322;2024-02-04T15:22:01;100190.56;;;11.92;75.99
13241;BME280;6687;47.790;7.322;2024-02-04T15:24:28;100197.47;;;11.43;75.83
13241;BME280;6687;47.790;7.322;2024-02-04T15:26:57;100199.91;;;11.84;77.40
13241;BME280;6687;47.790;7.322;2024-02-04T15:29:31;100196.59;;;11.91;77.03
13241;BME280;6687;47.790;7.322;2024-02-04T15:32:00;100204.38;;;11.44;75.94
13241;BME280;6687;47.790;7.322;2024-02-04T15:34:28;100201.47;;;11.75;78.49
13241;BME280;6687;47.790;7.322;2024-02-04T15:36:57;100200.34;;;11.60;76.61
13241;BME280;6687;47.790;7.322;2024-02-04T15:39:24;100193.94;;;11.39;78.36
13241;BME280;6687;47.790;7.322;2024-02-04T15:41:50;100192.97;;;11.83;77.72
13241;BME280;6687;47.790;7.322;2024-02-04T15:44:18;100189.81;;;11.50;77.21
13241;BME280;6687;47.790;7.322;2024-02-04T15:46:46;100173.97;;;11.87;76.79
13241;BME280;6687;47.790;7.322;2024-02-04T15:49:15;100180.84;;;11.82;76.99
13241;BME280;6687;47.790;7.322;2024-02-04T15:51:44;100174.63;;;11.72;77.13
13241;BME280;6687;47.790;7.322;2024-02-04T15:54:12;100180.72;;;11.75;75.74
13241;BME280;6687;47.790;7.322;2024-02-04T15:56:41;100177.78;;;11.54;75.39
13241;BME280;6687;47.790;7.322;2024-02-04T15:59:09;100164.66;;;11.48;77.58
13241;BME280;6687;47.790;7.322;2024-02-04T16:01:40;100167.22;;;11.45;76.65
13241;BME280;6687;47.790;7.322;2024-02-04T16:04:08;100159.31;;;11.39;77.52
13241;BME280;6687;47.790;7.322;2024-02-04T16:06:35;100163.88;;;11.50;75.90
13241;BME280;6687;47.790;7.322;2024-02-04T16:09:04;100169.19;;;11.11;77.35
13241;BME280;6687;47.790;7.322;2024-02-04T16:11:42;100171.47;;;10.95;75.93
13241;BME280;6687;47.790;7.322;2024-02-04T16:14:11;100170.91;;;11.12;77.47
13241;BME280;6687;47.790;7.322;2024-02-04T16:16:42;100183.31;;;11.27;77.26
13241;BME280;6687;47.790;7.322;2024-02-04T16:19:13;100182.09;;;11.08;77.16
13241;BME280;6687;47.790;7.322;2024-02-04T16:21:40;100174.56;;;11.20;77.06
13241;BME280;6687;47.790;7.322;2024-02-04T16:24:06;100178.97;;;11.24;76.41
13241;BME280;6687;47.790;7.322;2024-02-04T16:26:34;100179.41;;;11.03;76.86
13241;BME280;6687;47.790;7.322;2024-02-04T16:29:00;100185.66;;;11.13;76.54
13241;BME280;6687;47.790;7.322;2024-02-04T16:31:27;100180.81;;;10.87;76.33
13241;BME280;6687;47.790;7.322;2024-02-04T16:33:55;100187.38;;;10.68;76.76
13241;BME280;6687;47.790;7.322;2024-02-04T16:36:23;100183.78;;;11.04;77.08
13241;BME280;6687;47.790;7.322;2024-02-04T16:38:50;100175.34;;;10.73;77.22
13241;BME280;6687;47.790;7.322;2024-02-04T16:41:17;100179.50;;;11.06;77.06
13241;BME280;6687;47.790;7.322;2024-02-04T16:43:43;100187.44;;;10.33;77.77
13241;BME280;6687;47.790;7.322;2024-02-04T16:46:10;100184.19;;;10.83;77.65
13241;BME280;6687;47.790;7.322;2024-02-04T16:48:37;100188.75;;;10.52;78.40
13241;BME280;6687;47.790;7.322;2024-02-04T16:51:05;100194.41;;;10.75;78.20
13241;BME280;6687;47.790;7.322;2024-02-04T16:53:32;100191.94;;;10.42;78.07
13241;BME280;6687;47.790;7.322;2024-02-04T16:55:58;100203.81;;;10.31;78.82
13241;BME280;6687;47.790;7.322;2024-02-04T16:58:25;100189.81;;;10.26;79.41
13241;BME280;6687;47.790;7.322;2024-02-04T17:00:52;100191.03;;;10.40;79.87
13241;BME280;6687;47.790;7.322;2024-02-04T17:03:20;100191.94;;;10.42;78.54
13241;BME280;6687;47.790;7.322;2024-02-04T17:05:47;100185.41;;;10.22;79.62
13241;BME280;6687;47.790;7.322;2024-02-04T17:08:16;100189.78;;;10.23;78.96
13241;BME280;6687;47.790;7.322;2024-02-04T17:10:43;100181.44;;;10.36;79.57
13241;BME280;6687;47.790;7.322;2024-02-04T17:13:10;100184.38;;;10.51;78.58
13241;BME280;6687;47.790;7.322;2024-02-04T17:15:38;100189.44;;;10.45;79.04
13241;BME280;6687;47.790;7.322;2024-02-04T17:18:08;100187.50;;;10.35;79.61
13241;BME280;6687;47.790;7.322;2024-02-04T17:20:40;100181.88;;;10.56;77.99
13241;BME280;6687;47.790;7.322;2024-02-04T17:23:13;100180.06;;;10.50;78.41
13241;BME280;6687;47.790;7.322;2024-02-04T17:25:42;100186.16;;;10.52;77.80
13241;BME280;6687;47.790;7.322;2024-02-04T17:28:10;100193.75;;;10.46;77.65
13241;BME280;6687;47.790;7.322;2024-02-04T17:30:39;100193.25;;;10.61;76.93
13241;BME280;6687;47.790;7.322;2024-02-04T17:33:06;100177.00;;;10.30;77.43
13241;BME280;6687;47.790;7.322;2024-02-04T17:35:33;100185.13;;;10.09;77.51
13241;BME280;6687;47.790;7.322;2024-02-04T17:38:00;100193.59;;;10.37;77.48
13241;BME280;6687;47.790;7.322;2024-02-04T17:40:29;100177.94;;;10.34;78.17
13241;BME280;6687;47.790;7.322;2024-02-04T17:42:58;100183.22;;;10.37;77.72
13241;BME280;6687;47.790;7.322;2024-02-04T17:45:26;100191.81;;;10.36;77.72
13241;BME280;6687;47.790;7.322;2024-02-04T17:47:52;100183.94;;;10.31;77.52
13241;BME280;6687;47.790;7.322;2024-02-04T17:50:19;100181.16;;;10.24;76.99
13241;BME280;6687;47.790;7.322;2024-02-04T17:52:46;100187.00;;;10.15;77.92
13241;BME280;6687;47.790;7.322;2024-02-04T17:55:13;100178.38;;;10.16;76.91
13241;BME280;6687;47.790;7.322;2024-02-04T17:57:40;100180.59;;;10.01;78.09
13241;BME280;6687;47.790;7.322;2024-02-04T18:00:10;100173.72;;;10.38;76.63
13241;BME280;6687;47.790;7.322;2024-02-04T18:02:37;100173.63;;;9.98;77.10
13241;BME280;6687;47.790;7.322;2024-02-04T18:05:04;100172.19;;;10.09;76.92
13241;BME280;6687;47.790;7.322;2024-02-04T18:07:31;100173.22;;;9.80;77.94
13241;BME280;6687;47.790;7.322;2024-02-04T18:09:58;100175.75;;;10.14;78.00
13241;BME280;6687;47.790;7.322;2024-02-04T18:12:24;100164.53;;;9.78;77.35
13241;BME280;6687;47.790;7.322;2024-02-04T18:14:51;100173.94;;;10.10;78.14
13241;BME280;6687;47.790;7.322;2024-02-04T18:17:20;100172.28;;;9.78;78.48
13241;BME280;6687;47.790;7.322;2024-02-04T18:19:46;100174.00;;;9.77;78.70
13241;BME280;6687;47.790;7.322;2024-02-04T18:22:13;100182.91;;;9.53;79.75
13241;BME280;6687;47.790;7.322;2024-02-04T18:24:39;100179.03;;;9.71;79.90
13241;BME280;6687;47.790;7.322;2024-02-04T18:27:07;100178.06;;;10.02;79.55
13241;BME280;6687;47.790;7.322;2024-02-04T18:29:35;100183.47;;;9.76;79.60
13241;BME280;6687;47.790;7.322;2024-02-04T18:32:01;100183.53;;;9.45;80.13
13241;BME280;6687;47.790;7.322;2024-02-04T18:34:29;100179.19;;;9.77;79.00
13241;BME280;6687;47.790;7.322;2024-02-04T18:36:56;100189.38;;;9.38;81.42
13241;BME280;6687;47.790;7.322;2024-02-04T18:39:23;100186.88;;;9.41;80.90
13241;BME280;6687;47.790;7.322;2024-02-04T18:41:50;100183.56;;;9.46;80.81
13241;BME280;6687;47.790;7.322;2024-02-04T18:44:17;100174.59;;;9.67;80.87
13241;BME280;6687;47.790;7.322;2024-02-04T18:46:43;100166.25;;;9.79;79.64
13241;BME280;6687;47.790;7.322;2024-02-04T18:49:10;100165.19;;;10.05;78.36
13241;BME280;6687;47.790;7.322;2024-02-04T18:51:41;100159.28;;;10.11;77.35
13241;BME280;6687;47.790;7.322;2024-02-04T18:54:09;100160.22;;;9.78;77.96
13241;BME280;6687;47.790;7.322;2024-02-04T18:56:41;100170.94;;;9.59;78.64
13241;BME280;6687;47.790;7.322;2024-02-04T18:59:08;100186.66;;;9.33;79.51
13241;BME280;6687;47.790;7.322;2024-02-04T19:01:35;100184.78;;;9.59;80.92
13241;BME280;6687;47.790;7.322;2024-02-04T19:04:04;100187.63;;;9.36;80.89
13241;BME280;6687;47.790;7.322;2024-02-04T19:06:31;100192.41;;;9.21;80.85
13241;BME280;6687;47.790;7.322;2024-02-04T19:09:00;100195.75;;;9.50;81.48
13241;BME280;6687;47.790;7.322;2024-02-04T19:11:32;100195.03;;;9.56;80.87
13241;BME280;6687;47.790;7.322;2024-02-04T19:13:59;100197.66;;;9.58;80.58
13241;BME280;6687;47.790;7.322;2024-02-04T19:16:26;100195.44;;;9.71;79.89
13241;BME280;6687;47.790;7.322;2024-02-04T19:18:53;100196.16;;;9.66;79.92
13241;BME280;6687;47.790;7.322;2024-02-04T19:21:20;100195.50;;;9.74;79.15
13241;BME280;6687;47.790;7.322;2024-02-04T19:23:47;100199.25;;;9.86;79.17
13241;BME280;6687;47.790;7.322;2024-02-04T19:26:15;100197.50;;;9.85;78.98